Bowman Field
KLOU : now visible

Airfield :











YOU CAN JOIN US ON...

 
LOGIN :

Register | Disclaimer

   EN    FR    IT 

 









Legend :    VFR   Marginal VFR   IFR   Intensive IFR   Very Intensive IFR
Visi :
Ceiling :
>= 8 km
>= 3000ft
5 to 8 km
1000 to 3000 ft
1500m to 5 km
500 to 1000 ft
800 to 1500m
200 to 500 ft
< 800m
< 200 ft
Symbols :   Thunderstorms  Fog  Heavy snow  Heavy precipitations  Wind > 20 kt






- Airport Elevation : 546 ft


KLOU - Bowman Field

CURRENT METAR :
  • 171239Z 19014G20KT 10SM BKN027 BKN038 19/17 A2989 RMK AO2 T01940167

EXPIRED METARs :
  • 171153Z 18010KT 10SM SCT034 SCT050 18/16 A2989 RMK AO2 SLP118 60035 70035 T01780161 10211 20172 53001
  • 171053Z 18009KT 10SM BKN036 OVC049 18/17 A2988 RMK AO2 RAE45 SLP112 P0003 T01780167
  • 170953Z AUTO 17012G20KT 4SM +RA BR FEW037 BKN044 OVC070 18/16 A2986 RMK AO2 LTG DSNT SW SLP108 P0003 T01780161
  • 170853Z AUTO 16007KT 8SM -RA BKN041 OVC050 17/16 A2989 RMK AO2 LTG DSNT S RAB01 SLP117 P0007 60029 T01720161 55006
  • 170753Z AUTO 16008KT 10SM OVC055 18/16 A2989 RMK AO2 RAE24 SLP115 P0013 T01780161

TAF N/A
KZID FIR / North America



MET'MAP, your aeronautical weather chart ! - Copyright ORBIFLY December 2007 - Disclaimer

ORBIFLY MET'MAP TEAM :

Programming & Development : Alexandra Zaïnal
Original concept : Baudouin d'Aumeries
Technical & hardware support : Manuel Goepfert
Assistance : Marc-Olivier Méhu




SOURCES & CREDITS :

   NOAA       Earth
Advisory